createdAt,value
2019-05-18T00:00:36.235Z,98988.79
2019-05-18T00:03:04.894Z,98986.20
2019-05-18T00:05:33.384Z,98985.20
2019-05-18T00:08:01.951Z,98982.21
2019-05-18T00:10:30.529Z,98980.27
2019-05-18T00:12:59.113Z,98984.61
2019-05-18T00:15:27.731Z,98985.55
2019-05-18T00:17:56.415Z,98984.05
2019-05-18T00:20:25.005Z,98987.81
2019-05-18T00:22:53.504Z,98987.47
2019-05-18T00:25:22.103Z,98988.23
2019-05-18T00:27:50.696Z,98986.91
2019-05-18T00:30:21.165Z,98994.55
2019-05-18T00:32:49.829Z,98991.83
2019-05-18T00:35:18.313Z,98997.77
2019-05-18T00:37:46.897Z,98992.94
2019-05-18T00:40:15.585Z,98991.79
2019-05-18T00:42:44.167Z,98991.09
2019-05-18T00:45:12.909Z,98996.00
2019-05-18T00:47:42.405Z,98996.63
2019-05-18T00:50:11.768Z,98996.89
2019-05-18T00:52:40.245Z,98996.50
2019-05-18T00:55:09.025Z,98999.06
2019-05-18T00:57:37.620Z,99009.16
2019-05-18T01:00:06.558Z,99010.82
2019-05-18T01:02:35.250Z,99007.86
2019-05-18T01:05:04.565Z,99001.61
2019-05-18T01:07:33.048Z,98996.70
2019-05-18T01:10:01.663Z,98995.33
2019-05-18T01:12:30.239Z,98992.49
2019-05-18T01:14:58.735Z,98988.83
2019-05-18T01:17:27.237Z,98981.88
2019-05-18T01:19:55.613Z,98981.81
2019-05-18T01:22:24.097Z,98977.27
2019-05-18T01:24:52.642Z,98967.84
2019-05-18T01:27:21.131Z,98962.48
2019-05-18T01:29:49.585Z,98968.12
2019-05-18T01:32:18.290Z,98956.73
2019-05-18T01:34:46.944Z,98961.73
2019-05-18T01:37:15.459Z,98962.56
2019-05-18T01:39:43.936Z,98962.08
2019-05-18T01:42:12.507Z,98963.57
2019-05-18T01:44:41.015Z,98965.89
2019-05-18T01:47:09.396Z,98950.56
2019-05-18T01:49:38.006Z,98955.10
2019-05-18T01:52:06.514Z,98945.59
2019-05-18T01:54:35.012Z,98945.19
2019-05-18T01:57:03.497Z,98950.25
2019-05-18T01:59:32.105Z,98942.45
2019-05-18T02:02:00.666Z,98935.98
2019-05-18T02:04:29.182Z,98934.09
2019-05-18T02:06:57.607Z,98940.67
2019-05-18T02:09:26.268Z,98940.14
2019-05-18T02:11:54.650Z,98936.02
2019-05-18T02:14:23.138Z,98936.86
2019-05-18T02:16:51.535Z,98932.94
2019-05-18T02:19:20.153Z,98935.36
2019-05-18T02:21:48.556Z,98935.68
2019-05-18T02:24:16.944Z,98934.81
2019-05-18T02:26:45.334Z,98943.31
2019-05-18T02:29:13.953Z,98933.48
2019-05-18T02:31:42.458Z,98934.53
2019-05-18T02:34:10.944Z,98941.67
2019-05-18T02:36:39.445Z,98943.34
2019-05-18T02:39:08.645Z,98942.08
2019-05-18T02:41:37.215Z,98943.20
2019-05-18T02:44:05.924Z,98935.22
2019-05-18T02:46:34.266Z,98935.78
2019-05-18T02:49:02.852Z,98937.89
2019-05-18T02:51:31.436Z,98939.98
2019-05-18T02:53:59.812Z,98936.94
2019-05-18T02:56:28.487Z,98927.17
2019-05-18T02:58:56.979Z,98929.52
2019-05-18T03:01:25.515Z,98927.34
2019-05-18T03:03:53.918Z,98929.45
2019-05-18T03:06:22.439Z,98936.88
2019-05-18T03:08:50.927Z,98936.00
2019-05-18T03:11:19.320Z,98939.46
2019-05-18T03:13:47.803Z,98942.72
2019-05-18T03:16:16.516Z,98950.03
2019-05-18T03:18:45.109Z,98944.48
2019-05-18T03:21:13.690Z,98938.83
2019-05-18T03:23:42.179Z,98944.98
2019-05-18T03:26:10.563Z,98952.71
2019-05-18T03:28:39.155Z,98952.13
2019-05-18T03:31:07.629Z,98960.50
2019-05-18T03:33:36.423Z,98963.85
2019-05-18T03:36:04.875Z,98969.88
2019-05-18T03:38:33.570Z,98971.92
2019-05-18T03:41:02.160Z,98977.18
2019-05-18T03:43:30.661Z,98978.69
2019-05-18T03:45:59.226Z,98992.49
2019-05-18T03:48:27.743Z,98991.18
2019-05-18T03:50:56.231Z,98999.52
2019-05-18T03:53:24.733Z,99002.39
2019-05-18T03:55:53.343Z,99009.01
2019-05-18T03:58:21.949Z,99011.81
2019-05-18T04:00:50.463Z,99009.91
2019-05-18T04:03:18.852Z,99008.64
2019-05-18T04:05:47.428Z,99011.07
2019-05-18T04:08:16.022Z,99014.97
2019-05-18T04:10:44.428Z,99017.63
2019-05-18T04:13:12.996Z,99016.66
2019-05-18T04:15:41.598Z,99022.46
2019-05-18T04:18:10.243Z,99022.77
2019-05-18T04:20:38.762Z,99022.16
2019-05-18T04:23:07.244Z,99025.20
2019-05-18T04:25:35.647Z,99027.46
2019-05-18T04:28:04.248Z,99022.44
2019-05-18T04:30:32.724Z,99027.03
2019-05-18T04:33:01.218Z,99021.45
2019-05-18T04:35:29.834Z,99026.63
2019-05-18T04:37:58.312Z,99032.45
2019-05-18T04:40:27.113Z,99029.41
2019-05-18T04:42:55.692Z,99034.50
2019-05-18T04:45:24.188Z,99032.87
2019-05-18T04:47:52.672Z,99028.88
2019-05-18T04:50:21.282Z,99030.69
2019-05-18T04:52:49.888Z,99030.09
2019-05-18T04:55:18.490Z,99034.26
2019-05-18T04:57:47.186Z,99035.13
2019-05-18T05:00:15.771Z,99035.70
2019-05-18T05:02:44.256Z,99028.15
2019-05-18T05:05:12.841Z,99026.70
2019-05-18T05:07:41.436Z,99032.27
2019-05-18T05:10:10.110Z,99028.05
2019-05-18T05:12:38.845Z,99028.66
2019-05-18T05:15:07.652Z,99026.52
2019-05-18T05:17:36.315Z,99025.59
2019-05-18T05:20:18.737Z,99026.53
2019-05-18T05:22:35.633Z,99026.38
2019-05-18T05:25:04.310Z,99029.50
2019-05-18T05:27:32.891Z,99031.88
2019-05-18T05:30:01.609Z,99031.88
2019-05-18T05:32:30.278Z,99029.28
2019-05-18T05:34:58.970Z,99038.98
2019-05-18T05:37:27.541Z,99037.72
2019-05-18T05:39:56.063Z,99032.78
2019-05-18T05:42:24.733Z,99033.55
2019-05-18T05:44:53.543Z,99033.08
2019-05-18T05:47:22.041Z,99035.42
2019-05-18T05:49:50.648Z,99038.21
2019-05-18T05:52:19.340Z,99041.36
2019-05-18T05:54:48.024Z,99037.98
2019-05-18T05:57:16.712Z,99043.23
2019-05-18T05:59:45.298Z,99041.54
2019-05-18T06:02:13.946Z,99043.51
2019-05-18T06:04:42.624Z,99044.04
2019-05-18T06:07:11.130Z,99045.19
2019-05-18T06:09:39.923Z,99038.09
2019-05-18T06:12:08.539Z,99037.53
2019-05-18T06:14:37.244Z,99041.13
2019-05-18T06:17:08.424Z,99035.28
2019-05-18T06:19:36.672Z,99034.31
2019-05-18T06:22:05.322Z,99045.79
2019-05-18T06:24:34.038Z,99041.80
2019-05-18T06:27:02.656Z,99042.77
2019-05-18T06:29:31.344Z,99047.33
2019-05-18T06:31:59.949Z,99043.53
2019-05-18T06:34:28.671Z,99045.39
2019-05-18T06:36:57.276Z,99040.30
2019-05-18T06:39:25.861Z,99041.14
2019-05-18T06:41:54.627Z,99046.16
2019-05-18T06:44:23.413Z,99042.00
2019-05-18T06:46:52.009Z,99035.00
2019-05-18T06:49:20.619Z,99031.48
2019-05-18T06:51:48.995Z,99029.91
2019-05-18T06:54:17.593Z,99029.39
2019-05-18T06:56:46.293Z,99026.59
2019-05-18T06:59:16.514Z,99029.12
2019-05-18T07:01:45.555Z,99037.98
2019-05-18T07:04:15.364Z,99028.61
2019-05-18T07:06:44.237Z,99026.25
2019-05-18T07:09:14.528Z,99029.98
2019-05-18T07:11:42.872Z,99026.98
2019-05-18T07:14:23.576Z,99026.30
2019-05-18T07:16:41.278Z,99020.48
2019-05-18T07:19:09.893Z,99026.48
2019-05-18T07:21:38.473Z,99016.66
2019-05-18T07:24:07.094Z,99027.56
2019-05-18T07:26:35.802Z,99022.84
2019-05-18T07:29:05.816Z,99018.89
2019-05-18T07:31:34.567Z,99016.97
2019-05-18T07:34:03.266Z,99008.75
2019-05-18T07:36:31.950Z,99010.87
2019-05-18T07:39:00.578Z,99004.15
2019-05-18T07:41:29.357Z,99008.19
2019-05-18T07:43:57.947Z,99009.21
2019-05-18T07:46:26.640Z,99013.96
2019-05-18T07:48:55.594Z,99018.33
2019-05-18T07:51:36.331Z,99019.67
2019-05-18T07:53:54.633Z,99010.80
2019-05-18T07:56:23.331Z,99016.33
2019-05-18T07:58:52.005Z,99017.11
2019-05-18T08:01:20.870Z,99012.33
2019-05-18T08:03:49.436Z,99020.17
2019-05-18T08:06:18.026Z,99016.83
2019-05-18T08:08:46.631Z,99013.16
2019-05-18T08:11:14.983Z,99016.55
2019-05-18T08:13:43.161Z,99013.23
2019-05-18T08:16:11.338Z,99009.89
2019-05-18T08:18:39.516Z,99016.91
2019-05-18T08:21:07.768Z,99010.87
2019-05-18T08:23:36.418Z,99004.53
2019-05-18T08:26:05.016Z,99010.26
2019-05-18T08:28:33.491Z,99005.27
2019-05-18T08:31:02.001Z,99003.41
2019-05-18T08:33:30.992Z,99006.22
2019-05-18T08:35:59.575Z,99001.72
2019-05-18T08:38:28.375Z,99008.94
2019-05-18T08:40:56.956Z,99004.59
2019-05-18T08:43:25.565Z,99005.91
2019-05-18T08:45:54.148Z,99006.97
2019-05-18T08:48:22.762Z,99001.77
2019-05-18T08:50:51.405Z,99003.96
2019-05-18T08:53:19.961Z,98998.94
2019-05-18T08:55:48.590Z,98997.77
2019-05-18T08:58:17.202Z,98993.23
2019-05-18T09:00:45.771Z,98994.06
2019-05-18T09:03:14.408Z,98993.04
2019-05-18T09:05:43.021Z,98989.00
2019-05-18T09:08:11.815Z,98983.14
2019-05-18T09:10:40.505Z,98987.15
2019-05-18T09:13:09.194Z,98989.49
2019-05-18T09:15:37.775Z,98995.49
2019-05-18T09:18:06.371Z,98992.83
2019-05-18T09:20:35.033Z,98991.31
2019-05-18T09:23:03.560Z,98983.78
2019-05-18T09:25:32.159Z,98987.79
2019-05-18T09:28:00.854Z,98987.79
2019-05-18T09:30:29.475Z,98988.29
2019-05-18T09:32:58.058Z,98993.75
2019-05-18T09:35:26.439Z,98985.33
2019-05-18T09:37:55.140Z,98983.18
2019-05-18T09:40:23.537Z,98977.34
2019-05-18T09:42:52.017Z,98977.60
2019-05-18T09:45:21.103Z,98977.23
2019-05-18T09:47:49.603Z,98971.02
2019-05-18T09:50:18.217Z,98971.23
2019-05-18T09:52:46.844Z,98968.23
2019-05-18T09:55:15.738Z,98969.39
2019-05-18T09:57:44.227Z,98959.88
2019-05-18T10:00:13.810Z,98963.32
2019-05-18T10:02:42.561Z,98954.73
2019-05-18T10:05:11.063Z,98953.92
2019-05-18T10:07:39.657Z,98950.90
2019-05-18T10:10:08.643Z,98948.24
2019-05-18T10:12:37.177Z,98948.02
2019-05-18T10:15:06.130Z,98939.66
2019-05-18T10:17:34.735Z,98933.69
2019-05-18T10:20:03.666Z,98928.48
2019-05-18T10:22:32.269Z,98927.14
2019-05-18T10:25:00.882Z,98922.77
2019-05-18T10:27:29.348Z,98929.58
2019-05-18T10:29:57.740Z,98930.92
2019-05-18T10:32:26.364Z,98928.64
2019-05-18T10:34:54.946Z,98923.12
2019-05-18T10:37:23.531Z,98918.42
2019-05-18T10:39:51.919Z,98916.96
2019-05-18T10:42:20.309Z,98907.52
2019-05-18T10:44:49.050Z,98909.08
2019-05-18T10:47:21.585Z,98907.20
2019-05-18T10:49:50.376Z,98903.37
2019-05-18T10:52:18.956Z,98896.08
2019-05-18T10:54:47.680Z,98891.84
2019-05-18T10:57:16.095Z,98889.88
2019-05-18T10:59:44.680Z,98878.77
2019-05-18T11:02:13.401Z,98877.36
2019-05-18T11:04:41.924Z,98878.70
2019-05-18T11:07:10.321Z,98884.36
2019-05-18T11:09:39.035Z,98879.27
2019-05-18T11:12:07.622Z,98886.53
2019-05-18T11:14:36.112Z,98878.42
2019-05-18T11:17:04.721Z,98868.09
2019-05-18T11:19:33.341Z,98869.99
2019-05-18T11:22:01.800Z,98864.05
2019-05-18T11:24:30.492Z,98855.14
2019-05-18T11:26:59.584Z,98852.84
2019-05-18T11:29:28.061Z,98858.25
2019-05-18T11:31:56.660Z,98866.42
2019-05-18T11:34:25.179Z,98865.11
2019-05-18T11:36:53.589Z,98860.84
2019-05-18T11:39:22.234Z,98862.42
2019-05-18T11:41:50.871Z,98855.56
2019-05-18T11:44:19.359Z,98859.84
2019-05-18T11:46:47.860Z,98862.62
2019-05-18T11:49:16.329Z,98864.81
2019-05-18T11:51:44.806Z,98862.11
2019-05-18T11:54:13.413Z,98863.39
2019-05-18T11:56:41.870Z,98865.34
2019-05-18T11:59:10.575Z,98863.94
2019-05-18T12:01:39.199Z,98872.08
2019-05-18T12:04:07.749Z,98866.93
2019-05-18T12:06:36.234Z,98862.59
2019-05-18T12:09:05.661Z,98865.65
2019-05-18T12:11:34.176Z,98869.62
2019-05-18T12:14:02.787Z,98865.02
2019-05-18T12:16:31.465Z,98864.11
2019-05-18T12:18:59.975Z,98859.27
2019-05-18T12:21:28.536Z,98858.16
2019-05-18T12:23:57.140Z,98857.98
2019-05-18T12:26:25.614Z,98859.97
2019-05-18T12:28:54.072Z,98861.38
2019-05-18T12:31:22.636Z,98854.66
2019-05-18T12:33:51.237Z,98844.59
2019-05-18T12:36:19.831Z,98837.63
2019-05-18T12:38:48.458Z,98833.05
2019-05-18T12:41:19.632Z,98830.44
2019-05-18T12:43:48.420Z,98829.48
2019-05-18T12:46:17.003Z,98822.66
2019-05-18T12:48:45.612Z,98826.79
2019-05-18T12:51:14.225Z,98820.61
2019-05-18T12:53:42.596Z,98811.20
2019-05-18T12:56:10.982Z,98802.80
2019-05-18T12:58:39.576Z,98807.54
2019-05-18T13:01:08.062Z,98805.44
2019-05-18T13:03:36.552Z,98793.05
2019-05-18T13:06:05.247Z,98791.52
2019-05-18T13:08:33.773Z,98786.71
2019-05-18T13:11:02.350Z,98790.05
2019-05-18T13:13:31.023Z,98788.71
2019-05-18T13:15:59.529Z,98795.70
2019-05-18T13:18:28.157Z,98784.53
2019-05-18T13:20:56.836Z,98781.53
2019-05-18T13:23:25.422Z,98779.16
2019-05-18T13:25:53.910Z,98780.50
2019-05-18T13:28:22.462Z,98771.91
2019-05-18T13:30:51.356Z,98770.77
2019-05-18T13:33:19.936Z,98766.60
2019-05-18T13:35:48.433Z,98779.02
2019-05-18T13:38:17.022Z,98779.29
2019-05-18T13:40:45.605Z,98776.66
2019-05-18T13:43:14.396Z,98776.39
2019-05-18T13:45:42.978Z,98781.02
2019-05-18T13:48:11.588Z,98776.73
2019-05-18T13:50:40.086Z,98777.23
2019-05-18T13:53:08.771Z,98780.36
2019-05-18T13:55:37.345Z,98776.06
2019-05-18T13:58:05.931Z,98773.78
2019-05-18T14:00:34.601Z,98770.30
2019-05-18T14:03:03.211Z,98774.97
2019-05-18T14:05:31.709Z,98775.68
2019-05-18T14:08:00.215Z,98769.23
2019-05-18T14:10:28.722Z,98774.45
2019-05-18T14:12:57.300Z,98776.02
2019-05-18T14:15:25.895Z,98774.00
2019-05-18T14:17:54.497Z,98780.44
2019-05-18T14:20:26.057Z,98780.89
2019-05-18T14:22:53.326Z,98782.28
2019-05-18T14:25:21.826Z,98779.01
2019-05-18T14:27:50.313Z,98781.98
2019-05-18T14:30:19.102Z,98786.27
2019-05-18T14:32:47.672Z,98788.25
2019-05-18T14:35:16.573Z,98788.70
2019-05-18T14:37:45.052Z,98783.58
2019-05-18T14:40:13.606Z,98782.36
2019-05-18T14:42:42.281Z,98776.47
2019-05-18T14:45:10.851Z,98780.17
2019-05-18T14:47:39.558Z,98783.77
2019-05-18T14:50:09.372Z,98785.17
2019-05-18T14:52:37.951Z,98776.54
2019-05-18T14:55:06.787Z,98779.78
2019-05-18T14:57:35.397Z,98779.87
2019-05-18T15:00:06.138Z,98770.61
2019-05-18T15:02:34.644Z,98768.33
2019-05-18T15:05:03.645Z,98767.29
2019-05-18T15:07:32.357Z,98774.35
2019-05-18T15:10:00.990Z,98777.61
2019-05-18T15:12:29.692Z,98775.18
2019-05-18T15:14:58.077Z,98770.25
2019-05-18T15:17:26.546Z,98772.83
2019-05-18T15:19:55.026Z,98772.16
2019-05-18T15:22:23.712Z,98765.39
2019-05-18T15:24:52.198Z,98766.15
2019-05-18T15:27:20.706Z,98760.04
2019-05-18T15:29:49.186Z,98766.45
2019-05-18T15:32:17.785Z,98768.07
2019-05-18T15:34:46.367Z,98769.42
2019-05-18T15:37:14.864Z,98773.01
2019-05-18T15:39:43.484Z,98772.31
2019-05-18T15:42:11.993Z,98774.03
2019-05-18T15:44:40.475Z,98772.41
2019-05-18T15:47:09.188Z,98775.10
2019-05-18T15:49:37.676Z,98775.57
2019-05-18T15:52:06.285Z,98778.84
2019-05-18T15:54:36.305Z,98769.25
2019-05-18T15:57:04.910Z,98768.52
2019-05-18T15:59:33.412Z,98768.25
2019-05-18T16:02:05.814Z,98766.30
2019-05-18T16:04:32.505Z,98764.38
2019-05-18T16:07:01.097Z,98769.42
2019-05-18T16:09:29.802Z,98773.33
2019-05-18T16:11:58.404Z,98774.20
2019-05-18T16:14:26.900Z,98775.82
2019-05-18T16:16:55.488Z,98775.48
2019-05-18T16:19:23.991Z,98772.80
2019-05-18T16:21:52.579Z,98770.38
2019-05-18T16:24:21.285Z,98767.48
2019-05-18T16:26:49.883Z,98772.39
2019-05-18T16:29:18.472Z,98773.02
2019-05-18T16:31:47.067Z,98775.38
2019-05-18T16:34:15.559Z,98773.94
2019-05-18T16:36:44.248Z,98782.47
2019-05-18T16:39:13.032Z,98775.55
2019-05-18T16:41:41.510Z,98776.69
2019-05-18T16:44:09.930Z,98771.30
2019-05-18T16:46:38.527Z,98771.34
2019-05-18T16:49:07.300Z,98770.84
2019-05-18T16:51:35.769Z,98764.17
2019-05-18T16:54:04.530Z,98769.93
2019-05-18T16:56:35.242Z,98771.34
2019-05-18T16:59:03.820Z,98773.25
2019-05-18T17:01:32.412Z,98776.27
2019-05-18T17:04:00.792Z,98772.41
2019-05-18T17:06:29.501Z,98772.70
2019-05-18T17:08:57.986Z,98777.30
2019-05-18T17:11:26.481Z,98780.72
2019-05-18T17:13:55.073Z,98778.47
2019-05-18T17:16:23.586Z,98780.94
2019-05-18T17:18:52.186Z,98783.96
2019-05-18T17:21:20.684Z,98786.58
2019-05-18T17:23:49.159Z,98783.41
2019-05-18T17:26:17.577Z,98790.41
2019-05-18T17:28:46.188Z,98785.98
2019-05-18T17:31:14.683Z,98786.85
2019-05-18T17:33:43.271Z,98790.50
2019-05-18T17:36:11.889Z,98795.67
2019-05-18T17:38:40.602Z,98794.86
2019-05-18T17:41:09.139Z,98790.78
2019-05-18T17:43:38.245Z,98796.36
2019-05-18T17:46:07.047Z,98805.28
2019-05-18T17:48:35.654Z,98804.66
2019-05-18T17:51:04.149Z,98802.92
2019-05-18T17:53:32.836Z,98809.30
2019-05-18T17:56:01.419Z,98805.34
2019-05-18T17:58:29.919Z,98817.92
2019-05-18T18:00:58.535Z,98819.53
2019-05-18T18:03:27.124Z,98820.37
2019-05-18T18:05:55.731Z,98823.33
2019-05-18T18:08:24.334Z,98815.35
2019-05-18T18:10:52.978Z,98819.57
2019-05-18T18:13:21.582Z,98819.84
2019-05-18T18:15:50.069Z,98815.73
2019-05-18T18:18:18.674Z,98824.74
2019-05-18T18:20:47.282Z,98817.70
2019-05-18T18:23:15.904Z,98821.76
2019-05-18T18:25:44.402Z,98825.63
2019-05-18T18:28:13.121Z,98825.84
2019-05-18T18:30:41.734Z,98828.75
2019-05-18T18:33:10.251Z,98834.86
2019-05-18T18:35:39.695Z,98839.16
2019-05-18T18:38:08.358Z,98845.62
2019-05-18T18:40:37.106Z,98846.94
2019-05-18T18:43:05.615Z,98842.73
2019-05-18T18:45:34.326Z,98852.16
2019-05-18T18:48:03.022Z,98852.72
2019-05-18T18:50:31.520Z,98852.19
2019-05-18T18:53:00.014Z,98857.92
2019-05-18T18:55:28.713Z,98859.23
2019-05-18T18:57:57.497Z,98859.55
2019-05-18T19:00:26.024Z,98859.22
2019-05-18T19:02:54.624Z,98862.55
2019-05-18T19:05:23.005Z,98861.39
2019-05-18T19:07:51.561Z,98856.92
2019-05-18T19:10:20.364Z,98858.42
2019-05-18T19:12:48.965Z,98858.94
2019-05-18T19:15:18.281Z,98865.78
2019-05-18T19:17:46.889Z,98866.31
2019-05-18T19:20:15.530Z,98869.81
2019-05-18T19:22:44.024Z,98875.83
2019-05-18T19:25:13.535Z,98867.51
2019-05-18T19:27:54.038Z,98874.83
2019-05-18T19:30:12.957Z,98870.50
2019-05-18T19:32:41.678Z,98869.98
2019-05-18T19:35:10.436Z,98870.98
2019-05-18T19:37:39.042Z,98881.70
2019-05-18T19:40:09.309Z,98884.74
2019-05-18T19:42:38.003Z,98879.38
2019-05-18T19:45:07.693Z,98879.39
2019-05-18T19:47:36.209Z,98875.34
2019-05-18T19:50:05.450Z,98879.70
2019-05-18T19:52:34.163Z,98883.03
2019-05-18T19:55:03.045Z,98892.59
2019-05-18T19:57:31.630Z,98887.91
2019-05-18T20:00:00.131Z,98885.73
2019-05-18T20:02:28.613Z,98882.38
2019-05-18T20:05:07.606Z,98881.55
2019-05-18T20:07:27.601Z,98872.81
2019-05-18T20:09:56.132Z,98874.28
2019-05-18T20:12:24.625Z,98876.46
2019-05-18T20:14:53.723Z,98884.03
2019-05-18T20:17:22.416Z,98887.89
2019-05-18T20:19:51.013Z,98878.84
2019-05-18T20:22:19.514Z,98879.92
2019-05-18T20:24:48.109Z,98881.32
2019-05-18T20:27:16.614Z,98883.97
2019-05-18T20:29:45.232Z,98890.16
2019-05-18T20:32:13.725Z,98886.17
2019-05-18T20:34:42.121Z,98888.01
2019-05-18T20:37:10.717Z,98884.02
2019-05-18T20:39:39.306Z,98882.97
2019-05-18T20:42:07.825Z,98892.26
2019-05-18T20:44:36.418Z,98891.00
2019-05-18T20:47:04.945Z,98906.27
2019-05-18T20:49:33.413Z,98904.55
2019-05-18T20:52:01.997Z,98905.89
2019-05-18T20:54:30.587Z,98906.84
2019-05-18T20:56:59.304Z,98905.28
2019-05-18T20:59:27.929Z,98896.00
2019-05-18T21:01:56.406Z,98890.72
2019-05-18T21:04:24.982Z,98885.77
2019-05-18T21:06:53.491Z,98888.03
2019-05-18T21:09:22.062Z,98886.16
2019-05-18T21:11:50.786Z,98874.09
2019-05-18T21:14:19.370Z,98879.34
2019-05-18T21:16:47.764Z,98884.47
2019-05-18T21:19:16.370Z,98884.17
2019-05-18T21:21:45.654Z,98887.94
2019-05-18T21:24:14.055Z,98887.48
2019-05-18T21:26:42.593Z,98892.86
2019-05-18T21:29:11.181Z,98883.22
2019-05-18T21:31:39.820Z,98886.88
2019-05-18T21:34:08.374Z,98889.14
2019-05-18T21:36:37.008Z,98886.42
2019-05-18T21:39:05.508Z,98877.83
2019-05-18T21:41:33.980Z,98878.80
2019-05-18T21:44:02.688Z,98877.33
2019-05-18T21:46:31.309Z,98879.96
2019-05-18T21:48:59.906Z,98884.31
2019-05-18T21:51:28.397Z,98878.23
2019-05-18T21:53:56.897Z,98887.41
2019-05-18T21:56:25.471Z,98885.10
2019-05-18T21:58:54.100Z,98874.36
2019-05-18T22:01:22.682Z,98875.60
2019-05-18T22:03:51.288Z,98873.37
2019-05-18T22:06:19.783Z,98879.63
2019-05-18T22:08:48.315Z,98879.83
2019-05-18T22:11:16.774Z,98886.39
2019-05-18T22:13:45.481Z,98891.47
2019-05-18T22:16:13.984Z,98885.89
2019-05-18T22:18:42.475Z,98887.31
2019-05-18T22:21:11.087Z,98881.82
2019-05-18T22:23:39.555Z,98869.03
2019-05-18T22:26:08.035Z,98871.91
2019-05-18T22:28:36.619Z,98873.53
2019-05-18T22:31:05.122Z,98873.37
2019-05-18T22:33:33.613Z,98871.64
2019-05-18T22:36:02.325Z,98873.67
2019-05-18T22:38:31.117Z,98872.25
2019-05-18T22:40:59.705Z,98873.41
2019-05-18T22:43:28.387Z,98872.74
2019-05-18T22:45:56.796Z,98867.20
2019-05-18T22:48:38.902Z,98865.37
2019-05-18T22:50:55.761Z,98866.64
2019-05-18T22:53:24.169Z,98868.72
2019-05-18T22:55:52.650Z,98870.23
2019-05-18T22:58:21.247Z,98872.27
2019-05-18T23:00:49.630Z,98873.98
2019-05-18T23:03:18.211Z,98872.17
2019-05-18T23:05:46.788Z,98871.58
2019-05-18T23:08:15.248Z,98864.75
2019-05-18T23:10:43.650Z,98875.31
2019-05-18T23:13:12.154Z,98876.66
2019-05-18T23:15:40.853Z,98874.34
2019-05-18T23:18:09.433Z,98877.54
2019-05-18T23:20:38.114Z,98885.11
2019-05-18T23:23:06.570Z,98883.59
2019-05-18T23:25:35.046Z,98887.97
2019-05-18T23:28:03.625Z,98881.34
2019-05-18T23:30:32.146Z,98884.75
2019-05-18T23:33:00.767Z,98872.20
2019-05-18T23:35:29.188Z,98876.17
2019-05-18T23:37:57.737Z,98875.13
2019-05-18T23:40:26.127Z,98867.91
2019-05-18T23:42:54.711Z,98874.17
2019-05-18T23:45:23.089Z,98880.39
2019-05-18T23:47:51.674Z,98877.55
2019-05-18T23:50:20.257Z,98877.55
2019-05-18T23:52:48.839Z,98871.06
2019-05-18T23:55:17.515Z,98870.17
2019-05-18T23:57:46.102Z,98870.56
